createdAt,value
2022-11-16T00:00:18.681Z,19.58
2022-11-16T00:02:46.067Z,17.80
2022-11-16T00:05:13.331Z,18.40
2022-11-16T00:07:40.538Z,19.50
2022-11-16T00:10:08.045Z,18.63
2022-11-16T00:12:35.308Z,20.17
2022-11-16T00:15:02.455Z,18.67
2022-11-16T00:17:29.737Z,18.17
2022-11-16T00:19:56.999Z,19.75
2022-11-16T00:22:24.106Z,16.70
2022-11-16T00:24:51.289Z,17.20
2022-11-16T00:27:18.417Z,17.17
2022-11-16T00:29:46.079Z,18.05
2022-11-16T00:32:13.271Z,17.20
2022-11-16T00:34:40.906Z,16.83
2022-11-16T00:37:08.008Z,17.30
2022-11-16T00:39:35.214Z,16.27
2022-11-16T00:42:02.635Z,17.80
2022-11-16T00:44:29.779Z,17.77
2022-11-16T00:46:56.886Z,16.08
2022-11-16T00:49:23.980Z,15.70
2022-11-16T00:51:56.603Z,17.60
2022-11-16T00:54:23.812Z,16.58
2022-11-16T00:56:50.908Z,17.08
2022-11-16T00:59:18.081Z,15.68
2022-11-16T01:01:45.244Z,16.45
2022-11-16T01:04:12.572Z,14.98
2022-11-16T01:06:39.867Z,15.23
2022-11-16T01:09:06.978Z,15.70
2022-11-16T01:11:52.814Z,15.85
2022-11-16T01:14:19.978Z,15.80
2022-11-16T01:16:49.783Z,16.02
2022-11-16T01:19:16.902Z,15.82
2022-11-16T01:21:44.066Z,15.18
2022-11-16T01:24:11.198Z,15.57
2022-11-16T01:26:38.342Z,13.93
2022-11-16T01:29:05.491Z,15.30
2022-11-16T01:31:32.658Z,15.23
2022-11-16T01:33:59.782Z,14.60
2022-11-16T01:36:26.964Z,14.75
2022-11-16T01:38:54.079Z,14.82
2022-11-16T01:41:22.771Z,16.52
2022-11-16T01:44:01.918Z,14.32
2022-11-16T01:46:29.612Z,15.55
2022-11-16T01:49:04.935Z,15.70
2022-11-16T01:51:33.206Z,14.60
2022-11-16T01:54:01.975Z,15.15
2022-11-16T01:56:30.392Z,13.80
2022-11-16T01:58:59.019Z,13.65
2022-11-16T02:01:26.231Z,14.50
2022-11-16T02:03:53.488Z,14.50
2022-11-16T02:06:26.835Z,13.68
2022-11-16T02:09:27.686Z,14.45
2022-11-16T02:12:03.822Z,13.55
2022-11-16T02:14:42.518Z,13.35
2022-11-16T02:17:15.648Z,12.90
2022-11-16T02:19:42.781Z,13.52
2022-11-16T02:22:22.309Z,13.75
2022-11-16T02:25:06.198Z,13.32
2022-11-16T02:27:51.465Z,13.27
2022-11-16T02:30:19.553Z,12.95
2022-11-16T02:32:57.039Z,13.32
2022-11-16T02:35:24.129Z,12.63
2022-11-16T02:37:53.513Z,13.23
2022-11-16T02:40:22.356Z,13.82
2022-11-16T02:42:53.933Z,12.82
2022-11-16T02:45:23.122Z,12.68
2022-11-16T02:47:51.396Z,13.05
2022-11-16T02:50:21.265Z,13.25
2022-11-16T02:52:48.559Z,12.05
2022-11-16T02:55:15.816Z,12.32
2022-11-16T02:57:45.352Z,13.10
2022-11-16T03:00:23.371Z,12.65
2022-11-16T03:03:00.620Z,11.88
2022-11-16T03:05:56.821Z,12.43
2022-11-16T03:08:29.921Z,12.20
2022-11-16T03:11:21.742Z,11.93
2022-11-16T03:13:49.392Z,12.20
2022-11-16T03:16:26.016Z,11.98
2022-11-16T03:18:54.677Z,12.13
2022-11-16T03:21:24.861Z,12.18
2022-11-16T03:23:54.581Z,11.75
2022-11-16T03:26:24.226Z,11.40
2022-11-16T03:29:00.391Z,11.65
2022-11-16T03:31:50.582Z,11.18
2022-11-16T03:34:19.711Z,10.27
2022-11-16T03:36:47.934Z,12.07
2022-11-16T03:39:22.037Z,11.70
2022-11-16T03:41:50.663Z,10.60
2022-11-16T03:44:18.957Z,10.82
2022-11-16T03:46:46.295Z,11.70
2022-11-16T03:49:13.456Z,12.38
2022-11-16T03:51:40.643Z,11.07
2022-11-16T03:54:10.597Z,10.75
2022-11-16T03:56:37.716Z,10.75
2022-11-16T03:59:04.883Z,11.02
2022-11-16T04:01:32.043Z,10.98
2022-11-16T04:03:59.445Z,10.15
2022-11-16T04:06:45.435Z,10.90
2022-11-16T04:09:31.553Z,9.80
2022-11-16T04:12:19.660Z,10.80
2022-11-16T04:15:05.744Z,10.13
2022-11-16T04:17:51.879Z,10.85
2022-11-16T04:20:37.942Z,10.23
2022-11-16T04:23:34.639Z,10.27
2022-11-16T04:28:31.025Z,10.07
2022-11-16T04:31:18.371Z,9.65
2022-11-16T04:34:04.524Z,10.43
2022-11-16T04:36:50.706Z,10.13
2022-11-16T04:39:17.905Z,10.05
2022-11-16T04:42:03.707Z,10.43
2022-11-16T04:44:50.874Z,10.68
2022-11-16T04:47:18.036Z,9.32
2022-11-16T04:49:45.173Z,10.90
2022-11-16T04:52:12.537Z,10.05
2022-11-16T04:54:39.683Z,9.93
2022-11-16T04:57:06.823Z,10.13
2022-11-16T04:59:33.978Z,9.63
2022-11-16T05:02:10.280Z,10.38
2022-11-16T05:04:37.585Z,10.75
2022-11-16T05:07:10.664Z,10.20
2022-11-16T05:09:45.360Z,9.27
2022-11-16T05:12:14.832Z,9.52
2022-11-16T05:14:42.897Z,9.63
2022-11-16T05:17:10.443Z,9.57
2022-11-16T05:19:56.200Z,9.80
2022-11-16T05:22:23.441Z,9.45
2022-11-16T05:24:50.817Z,9.40
2022-11-16T05:27:21.870Z,9.32
2022-11-16T05:29:49.723Z,9.30
2022-11-16T05:32:17.694Z,9.02
2022-11-16T05:34:45.142Z,9.13
2022-11-16T05:37:12.411Z,9.38
2022-11-16T05:39:39.598Z,9.13
2022-11-16T05:42:07.005Z,9.45
2022-11-16T05:44:34.305Z,10.02
2022-11-16T05:47:01.913Z,9.18
2022-11-16T05:49:29.030Z,9.50
2022-11-16T05:51:56.217Z,9.25
2022-11-16T05:54:27.375Z,9.77
2022-11-16T05:56:55.297Z,9.10
2022-11-16T05:59:23.043Z,8.73
2022-11-16T06:01:53.166Z,8.88
2022-11-16T06:04:26.066Z,9.20
2022-11-16T06:06:53.333Z,9.40
2022-11-16T06:09:20.678Z,9.93
2022-11-16T06:11:47.871Z,9.65
2022-11-16T06:14:15.049Z,9.40
2022-11-16T06:16:42.251Z,9.57
2022-11-16T06:19:09.362Z,9.68
2022-11-16T06:21:36.605Z,9.23
2022-11-16T06:24:08.801Z,9.98
2022-11-16T06:26:36.238Z,9.57
2022-11-16T06:29:03.479Z,9.35
2022-11-16T06:31:30.971Z,9.30
2022-11-16T06:33:58.105Z,9.70
2022-11-16T06:36:25.451Z,9.75
2022-11-16T06:38:52.641Z,10.13
2022-11-16T06:41:20.115Z,9.45
2022-11-16T06:43:47.385Z,10.02
2022-11-16T06:46:14.603Z,11.18
2022-11-16T06:48:41.729Z,11.52
2022-11-16T06:51:08.896Z,11.85
2022-11-16T06:56:29.900Z,11.57
2022-11-16T06:58:57.281Z,12.60
2022-11-16T07:01:24.542Z,10.80
2022-11-16T07:03:51.847Z,11.10
2022-11-16T07:06:19.439Z,10.93
2022-11-16T07:08:46.625Z,10.70
2022-11-16T07:11:13.742Z,10.13
2022-11-16T07:13:40.930Z,10.07
2022-11-16T07:16:08.897Z,10.88
2022-11-16T07:18:36.958Z,11.65
2022-11-16T07:21:12.052Z,10.38
2022-11-16T07:23:39.237Z,10.90
2022-11-16T07:26:07.508Z,11.15
2022-11-16T07:28:34.897Z,11.43
2022-11-16T07:31:06.584Z,11.35
2022-11-16T07:33:33.956Z,10.63
2022-11-16T07:36:27.582Z,11.00
2022-11-16T07:38:54.758Z,11.10
2022-11-16T07:41:21.948Z,12.05
2022-11-16T07:43:52.944Z,11.55
2022-11-16T07:46:46.074Z,34.50
2022-11-16T07:49:11.556Z,19.13
2022-11-16T07:51:39.043Z,23.48
2022-11-16T07:54:06.625Z,25.83
2022-11-16T07:56:33.900Z,23.38
2022-11-16T07:59:01.553Z,22.45
2022-11-16T08:01:28.728Z,22.30
2022-11-16T08:03:56.311Z,24.45
2022-11-16T08:06:23.499Z,21.02
2022-11-16T08:08:55.208Z,20.83
2022-11-16T08:11:25.394Z,21.33
2022-11-16T08:13:52.535Z,21.40
2022-11-16T08:16:21.530Z,21.98
2022-11-16T08:18:48.950Z,19.88
2022-11-16T08:21:16.998Z,19.83
2022-11-16T08:23:47.079Z,18.85
2022-11-16T08:26:18.476Z,20.52
2022-11-16T08:28:46.773Z,20.27
2022-11-16T08:31:18.639Z,18.30
2022-11-16T08:33:46.138Z,18.67
2022-11-16T08:36:17.211Z,18.35
2022-11-16T08:38:48.331Z,18.75
2022-11-16T08:41:16.252Z,18.92
2022-11-16T08:43:44.588Z,18.92
2022-11-16T08:46:11.894Z,18.23
2022-11-16T08:48:39.470Z,18.33
2022-11-16T08:53:56.556Z,17.33
2022-11-16T08:56:23.757Z,15.88
2022-11-16T08:58:58.179Z,17.33
2022-11-16T09:01:27.252Z,16.90
2022-11-16T09:03:54.729Z,17.23
2022-11-16T09:06:22.816Z,16.58
2022-11-16T09:08:50.406Z,18.17
2022-11-16T09:11:18.884Z,17.35
2022-11-16T09:16:31.556Z,16.80
2022-11-16T09:18:58.683Z,16.65
2022-11-16T09:21:29.557Z,17.23
2022-11-16T09:23:57.739Z,17.27
2022-11-16T09:26:26.196Z,17.35
2022-11-16T09:28:58.312Z,16.77
2022-11-16T09:31:29.056Z,16.92
2022-11-16T09:33:58.380Z,17.23
2022-11-16T09:36:26.509Z,17.48
2022-11-16T09:39:25.787Z,15.60
2022-11-16T09:41:53.426Z,17.50
2022-11-16T09:44:39.193Z,16.70
2022-11-16T09:47:10.005Z,15.90
2022-11-16T09:49:40.234Z,16.02
2022-11-16T09:52:10.546Z,16.45
2022-11-16T09:54:40.603Z,16.65
2022-11-16T09:57:12.256Z,16.02
2022-11-16T09:59:44.911Z,16.00
2022-11-16T10:02:30.548Z,15.57
2022-11-16T10:05:10.644Z,14.52
2022-11-16T10:07:42.809Z,15.98
2022-11-16T10:10:17.006Z,16.50
2022-11-16T10:12:52.933Z,15.73
2022-11-16T10:15:37.549Z,16.60
2022-11-16T10:18:07.449Z,16.10
2022-11-16T10:20:53.565Z,16.23
2022-11-16T10:23:32.803Z,17.02
2022-11-16T10:26:07.509Z,15.43
2022-11-16T10:28:34.801Z,15.82
2022-11-16T10:31:14.722Z,14.65
2022-11-16T10:33:42.716Z,15.70
2022-11-16T10:36:13.618Z,15.70
2022-11-16T10:38:41.744Z,14.98
2022-11-16T10:41:24.349Z,14.73
2022-11-16T10:43:51.452Z,14.85
2022-11-16T10:46:18.593Z,15.75
2022-11-16T10:48:48.727Z,13.52
2022-11-16T10:51:15.865Z,15.50
2022-11-16T10:53:46.808Z,14.50
2022-11-16T10:56:13.984Z,12.80
2022-11-16T10:58:53.197Z,13.77
2022-11-16T11:01:34.054Z,14.02
2022-11-16T11:04:33.854Z,13.80
2022-11-16T11:07:24.611Z,14.55
2022-11-16T11:09:55.022Z,14.63
2022-11-16T11:12:38.304Z,13.98
2022-11-16T11:15:08.470Z,14.73
2022-11-16T11:17:36.416Z,14.38
2022-11-16T11:20:07.717Z,13.30
2022-11-16T11:22:36.455Z,14.73
2022-11-16T11:25:03.792Z,13.45
2022-11-16T11:27:35.555Z,13.07
2022-11-16T11:30:03.849Z,14.57
2022-11-16T11:32:35.758Z,12.40
2022-11-16T11:35:03.915Z,13.45
2022-11-16T11:37:33.982Z,14.07
2022-11-16T11:40:10.142Z,13.05
2022-11-16T11:42:41.204Z,13.15
2022-11-16T11:45:09.701Z,13.20
2022-11-16T11:48:00.322Z,13.70
2022-11-16T11:50:34.461Z,13.13
2022-11-16T11:53:09.051Z,12.32
2022-11-16T11:55:36.242Z,12.43
2022-11-16T11:58:05.165Z,13.32
2022-11-16T12:00:54.993Z,12.82
2022-11-16T12:03:37.887Z,13.30
2022-11-16T12:06:05.862Z,12.80
2022-11-16T12:08:49.082Z,12.70
2022-11-16T12:11:35.217Z,13.05
2022-11-16T12:14:18.185Z,12.93
2022-11-16T12:16:45.356Z,12.07
2022-11-16T12:19:21.829Z,12.27
2022-11-16T12:22:08.218Z,12.05
2022-11-16T12:24:38.220Z,11.43
2022-11-16T12:27:27.022Z,12.05
2022-11-16T12:30:10.506Z,11.40
2022-11-16T12:32:40.690Z,12.57
2022-11-16T12:35:40.149Z,13.20
2022-11-16T12:38:16.121Z,11.68
2022-11-16T12:41:01.985Z,10.98
2022-11-16T12:43:35.776Z,11.82
2022-11-16T12:46:22.079Z,12.52
2022-11-16T12:48:49.201Z,12.05
2022-11-16T12:51:39.426Z,12.23
2022-11-16T12:54:15.810Z,13.07
2022-11-16T12:56:49.358Z,13.80
2022-11-16T12:59:35.581Z,14.82
2022-11-16T13:02:04.253Z,15.20
2022-11-16T13:04:43.556Z,14.25
2022-11-16T13:07:12.878Z,14.05
2022-11-16T13:10:00.332Z,14.90
2022-11-16T13:12:28.772Z,16.35
2022-11-16T13:14:57.097Z,16.50
2022-11-16T13:17:32.758Z,15.75
2022-11-16T13:20:18.691Z,16.40
2022-11-16T13:22:59.718Z,16.25
2022-11-16T13:25:39.224Z,16.88
2022-11-16T13:28:12.266Z,15.65
2022-11-16T13:30:47.700Z,15.77
2022-11-16T13:33:25.693Z,16.73
2022-11-16T13:35:52.937Z,16.35
2022-11-16T13:38:40.048Z,15.52
2022-11-16T13:41:25.881Z,15.23
2022-11-16T13:43:53.365Z,14.93
2022-11-16T13:46:53.589Z,14.68
2022-11-16T13:49:19.409Z,15.23
2022-11-16T13:51:54.711Z,13.98
2022-11-16T13:54:47.720Z,18.58
2022-11-16T13:57:32.112Z,18.02
2022-11-16T14:00:02.243Z,18.88
2022-11-16T14:02:31.542Z,17.65
2022-11-16T14:04:58.660Z,19.25
2022-11-16T14:07:30.056Z,18.85
2022-11-16T14:09:57.314Z,17.52
2022-11-16T14:12:39.820Z,17.67
2022-11-16T14:15:12.789Z,17.00
2022-11-16T14:17:53.071Z,17.50
2022-11-16T14:20:26.953Z,17.15
2022-11-16T14:22:58.614Z,17.90
2022-11-16T14:26:01.181Z,17.05
2022-11-16T14:28:48.991Z,17.38
2022-11-16T14:31:46.229Z,17.77
2022-11-16T14:34:17.032Z,17.30
2022-11-16T14:36:45.225Z,16.65
2022-11-16T14:39:18.295Z,16.23
2022-11-16T14:41:47.113Z,16.63
2022-11-16T14:44:18.323Z,17.33
2022-11-16T14:46:45.707Z,16.80
2022-11-16T14:49:16.054Z,16.65
2022-11-16T14:51:48.624Z,15.50
2022-11-16T14:54:21.029Z,15.93
2022-11-16T14:57:01.610Z,16.17
2022-11-16T14:59:29.835Z,15.48
2022-11-16T15:01:57.095Z,15.40
2022-11-16T15:04:26.069Z,16.23
2022-11-16T15:06:59.098Z,15.70
2022-11-16T15:09:34.484Z,14.68
2022-11-16T15:12:22.244Z,15.00
2022-11-16T15:14:51.076Z,14.80
2022-11-16T15:17:19.405Z,14.95
2022-11-16T15:19:59.404Z,15.65
2022-11-16T15:22:28.261Z,15.35
2022-11-16T15:24:57.326Z,14.73
2022-11-16T15:27:24.486Z,14.52
2022-11-16T15:29:51.840Z,15.43
2022-11-16T15:32:19.100Z,14.20
2022-11-16T15:34:51.794Z,14.25
2022-11-16T15:37:30.984Z,14.13
2022-11-16T15:39:58.935Z,14.05
2022-11-16T15:42:27.774Z,14.05
2022-11-16T15:44:55.448Z,13.75
2022-11-16T15:47:23.154Z,13.43
2022-11-16T15:49:52.925Z,13.90
2022-11-16T15:52:40.415Z,13.18
2022-11-16T15:55:20.436Z,12.85
2022-11-16T15:57:59.200Z,12.52
2022-11-16T16:00:27.090Z,13.25
2022-11-16T16:02:55.598Z,12.73
2022-11-16T16:05:39.630Z,11.82
2022-11-16T16:08:07.850Z,12.70
2022-11-16T16:10:35.086Z,12.82
2022-11-16T16:13:02.679Z,13.30
2022-11-16T16:15:34.100Z,13.13
2022-11-16T16:18:01.890Z,13.25
2022-11-16T16:20:32.958Z,13.27
2022-11-16T16:23:07.768Z,12.50
2022-11-16T16:25:36.287Z,12.35
2022-11-16T16:28:06.592Z,13.20
2022-11-16T16:30:34.955Z,12.73
2022-11-16T16:33:02.338Z,12.40
2022-11-16T16:35:29.864Z,13.40
2022-11-16T16:37:58.793Z,12.70
2022-11-16T16:40:26.562Z,12.98
2022-11-16T16:42:54.098Z,12.80
2022-11-16T16:45:24.020Z,12.90
2022-11-16T16:47:51.225Z,12.60
2022-11-16T16:50:18.427Z,11.90
2022-11-16T16:52:46.167Z,11.65
2022-11-16T16:55:13.458Z,11.55
2022-11-16T16:57:40.629Z,11.13
2022-11-16T17:00:08.108Z,11.48
2022-11-16T17:02:36.973Z,10.82
2022-11-16T17:05:04.375Z,10.32
2022-11-16T17:07:31.999Z,11.77
2022-11-16T17:09:59.175Z,10.98
2022-11-16T17:12:26.342Z,11.73
2022-11-16T17:14:53.479Z,11.13
2022-11-16T17:17:21.349Z,11.07
2022-11-16T17:19:48.479Z,12.23
2022-11-16T17:22:15.619Z,11.80
2022-11-16T17:24:42.760Z,10.80
2022-11-16T17:27:10.067Z,10.65
2022-11-16T17:29:37.196Z,10.50
2022-11-16T17:32:04.449Z,11.05
2022-11-16T17:34:32.207Z,10.25
2022-11-16T17:36:59.446Z,9.57
2022-11-16T17:39:26.611Z,10.05
2022-11-16T17:41:53.831Z,11.18
2022-11-16T17:44:22.050Z,10.00
2022-11-16T17:46:49.741Z,10.55
2022-11-16T17:49:16.910Z,10.13
2022-11-16T17:51:44.346Z,10.23
2022-11-16T17:54:11.551Z,10.68
2022-11-16T17:56:38.778Z,9.40
2022-11-16T17:59:05.987Z,10.82
2022-11-16T18:01:33.288Z,10.27
2022-11-16T18:04:01.273Z,9.48
2022-11-16T18:06:28.486Z,9.90
2022-11-16T18:08:55.643Z,10.50
2022-11-16T18:11:24.124Z,9.65
2022-11-16T18:13:55.043Z,8.75
2022-11-16T18:16:23.848Z,9.55
2022-11-16T18:18:56.036Z,9.38
2022-11-16T18:21:23.205Z,9.38
2022-11-16T18:23:50.369Z,9.23
2022-11-16T18:26:18.844Z,10.05
2022-11-16T18:28:46.387Z,9.70
2022-11-16T18:31:15.385Z,9.20
2022-11-16T18:33:43.020Z,9.07
2022-11-16T18:36:10.837Z,8.95
2022-11-16T18:38:38.058Z,9.13
2022-11-16T18:41:14.247Z,8.85
2022-11-16T18:43:54.545Z,8.68
2022-11-16T18:46:23.187Z,8.55
2022-11-16T18:48:50.634Z,9.00
2022-11-16T18:51:18.689Z,8.95
2022-11-16T18:53:46.213Z,9.07
2022-11-16T18:56:13.708Z,8.23
2022-11-16T18:58:50.925Z,8.85
2022-11-16T19:01:20.452Z,8.35
2022-11-16T19:03:47.873Z,9.05
2022-11-16T19:06:17.089Z,8.55
2022-11-16T19:08:46.882Z,7.70
2022-11-16T19:11:17.503Z,8.73
2022-11-16T19:13:45.279Z,8.32
2022-11-16T19:16:13.434Z,7.47
2022-11-16T19:18:40.605Z,9.02
2022-11-16T19:21:12.193Z,8.23
2022-11-16T19:23:40.437Z,9.20
2022-11-16T19:26:08.142Z,8.23
2022-11-16T19:28:36.383Z,8.55
2022-11-16T19:31:07.779Z,8.55
2022-11-16T19:33:35.412Z,8.95
2022-11-16T19:36:13.283Z,8.60
2022-11-16T19:38:40.746Z,8.20
2022-11-16T19:41:08.713Z,9.38
2022-11-16T19:43:36.240Z,9.32
2022-11-16T19:46:07.452Z,8.18
2022-11-16T19:48:35.111Z,8.02
2022-11-16T19:51:21.902Z,7.55
2022-11-16T19:53:49.363Z,8.55
2022-11-16T19:56:17.592Z,8.00
2022-11-16T19:58:45.167Z,7.50
2022-11-16T20:01:14.013Z,7.28
2022-11-16T20:03:42.146Z,8.18
2022-11-16T20:06:15.475Z,7.47
2022-11-16T20:08:43.075Z,7.90
2022-11-16T20:11:14.509Z,8.25
2022-11-16T20:13:42.538Z,8.00
2022-11-16T20:16:11.022Z,7.07
2022-11-16T20:18:39.004Z,8.20
2022-11-16T20:21:06.657Z,7.68
2022-11-16T20:23:34.658Z,7.20
2022-11-16T20:26:10.296Z,8.30
2022-11-16T20:28:38.074Z,8.68
2022-11-16T20:31:08.344Z,7.25
2022-11-16T20:33:35.797Z,9.20
2022-11-16T20:36:12.563Z,8.05
2022-11-16T20:38:40.350Z,9.25
2022-11-16T20:41:11.336Z,8.75
2022-11-16T20:43:42.159Z,8.52
2022-11-16T20:46:10.308Z,9.45
2022-11-16T20:48:37.982Z,8.73
2022-11-16T20:51:05.667Z,8.85
2022-11-16T20:53:33.434Z,8.55
2022-11-16T20:56:04.404Z,8.85
2022-11-16T20:58:32.164Z,8.32
2022-11-16T21:01:06.917Z,8.88
2022-11-16T21:03:34.636Z,8.65
2022-11-16T21:06:02.329Z,9.32
2022-11-16T21:08:29.985Z,8.77
2022-11-16T21:10:57.256Z,9.13
2022-11-16T21:13:43.590Z,8.50
2022-11-16T21:18:40.877Z,7.13
2022-11-16T21:21:09.320Z,8.98
2022-11-16T21:23:37.311Z,8.57
2022-11-16T21:26:05.724Z,7.68
2022-11-16T21:28:32.861Z,8.50
2022-11-16T21:31:01.629Z,7.47
2022-11-16T21:33:29.076Z,7.95
2022-11-16T21:35:56.488Z,8.40
2022-11-16T21:38:25.323Z,7.82
2022-11-16T21:40:52.646Z,7.07
2022-11-16T21:43:19.981Z,7.47
2022-11-16T21:45:47.777Z,8.50
2022-11-16T21:48:14.974Z,7.80
2022-11-16T21:50:42.301Z,8.23
2022-11-16T21:53:09.863Z,7.40
2022-11-16T21:55:37.040Z,7.63
2022-11-16T21:58:04.245Z,8.30
2022-11-16T22:00:31.627Z,8.77
2022-11-16T22:02:58.950Z,9.23
2022-11-16T22:05:45.033Z,8.55
2022-11-16T22:08:12.314Z,8.35
2022-11-16T22:10:39.502Z,8.20
2022-11-16T22:13:06.714Z,8.75
2022-11-16T22:15:33.974Z,8.35
2022-11-16T22:18:02.180Z,8.15
2022-11-16T22:20:29.313Z,8.93
2022-11-16T22:22:56.428Z,8.75
2022-11-16T22:25:23.548Z,8.65
2022-11-16T22:28:20.216Z,9.40
2022-11-16T22:30:38.123Z,7.72
2022-11-16T22:33:05.258Z,8.95
2022-11-16T22:35:32.404Z,9.57
2022-11-16T22:38:01.502Z,8.10
2022-11-16T22:40:28.618Z,8.35
2022-11-16T22:42:59.456Z,9.48
2022-11-16T22:45:26.833Z,10.15
2022-11-16T22:47:55.004Z,9.70
2022-11-16T22:50:24.068Z,9.75
2022-11-16T22:52:51.187Z,9.50
2022-11-16T22:55:18.341Z,10.10
2022-11-16T22:57:45.532Z,9.10
2022-11-16T23:00:13.606Z,9.63
2022-11-16T23:02:41.098Z,9.07
2022-11-16T23:05:08.562Z,8.68
2022-11-16T23:07:35.804Z,9.23
2022-11-16T23:10:03.094Z,8.88
2022-11-16T23:12:48.859Z,8.77
2022-11-16T23:15:34.976Z,8.77
2022-11-16T23:18:02.118Z,9.32
2022-11-16T23:20:47.936Z,8.95
2022-11-16T23:23:37.687Z,9.32
2022-11-16T23:26:25.430Z,9.23
2022-11-16T23:28:52.610Z,8.27
2022-11-16T23:31:19.722Z,8.32
2022-11-16T23:33:47.794Z,7.95
2022-11-16T23:36:15.077Z,8.95
2022-11-16T23:38:42.276Z,8.70
2022-11-16T23:41:28.161Z,9.05
2022-11-16T23:43:58.397Z,7.78
2022-11-16T23:46:26.858Z,8.40
2022-11-16T23:48:54.322Z,7.80
2022-11-16T23:51:23.357Z,8.90
2022-11-16T23:53:51.694Z,7.75
2022-11-16T23:56:19.760Z,8.15
2022-11-16T23:58:46.957Z,7.68
